sensor_id;sensor_type;location;lat;lon;timestamp;pressure;altitude;pressure_sealevel;temperature;humidity
41703;BME280;861;48.808;9.006;2022-10-31T00:01:38;97568.00;;;14.42;77.35
41703;BME280;861;48.808;9.006;2022-10-31T00:04:07;97568.03;;;14.32;77.96
41703;BME280;861;48.808;9.006;2022-10-31T00:06:33;97580.16;;;14.38;78.22
41703;BME280;861;48.808;9.006;2022-10-31T00:09:03;97567.66;;;14.23;78.54
41703;BME280;861;48.808;9.006;2022-10-31T00:11:30;97564.13;;;14.22;78.55
41703;BME280;861;48.808;9.006;2022-10-31T00:13:58;97571.97;;;14.27;78.50
41703;BME280;861;48.808;9.006;2022-10-31T00:16:27;97578.66;;;14.09;79.33
41703;BME280;861;48.808;9.006;2022-10-31T00:18:59;97570.03;;;14.10;78.99
41703;BME280;861;48.808;9.006;2022-10-31T00:21:29;97570.03;;;14.00;79.21
41703;BME280;861;48.808;9.006;2022-10-31T00:23:58;97572.03;;;13.99;79.41
41703;BME280;861;48.808;9.006;2022-10-31T00:26:28;97568.09;;;14.07;79.25
41703;BME280;861;48.808;9.006;2022-10-31T00:30:41;97574.34;;;14.15;78.78
41703;BME280;861;48.808;9.006;2022-10-31T00:33:07;97567.34;;;13.96;79.05
41703;BME280;861;48.808;9.006;2022-10-31T00:36:31;97566.91;;;14.01;78.79
41703;BME280;861;48.808;9.006;2022-10-31T00:38:59;97568.84;;;14.08;78.70
41703;BME280;861;48.808;9.006;2022-10-31T00:41:42;97568.88;;;13.94;79.35
41703;BME280;861;48.808;9.006;2022-10-31T00:44:09;97570.06;;;13.96;79.33
41703;BME280;861;48.808;9.006;2022-10-31T00:46:35;97568.09;;;13.97;79.12
41703;BME280;861;48.808;9.006;2022-10-31T00:49:02;97564.97;;;14.05;78.70
41703;BME280;861;48.808;9.006;2022-10-31T00:51:29;97564.56;;;14.03;78.85
41703;BME280;861;48.808;9.006;2022-10-31T00:53:55;97568.50;;;13.95;79.52
41703;BME280;861;48.808;9.006;2022-10-31T00:56:22;97573.56;;;14.07;78.64
41703;BME280;861;48.808;9.006;2022-10-31T00:58:48;97565.72;;;14.06;78.97
41703;BME280;861;48.808;9.006;2022-10-31T01:02:23;97561.03;;;14.03;79.13
41703;BME280;861;48.808;9.006;2022-10-31T01:04:49;97566.50;;;14.03;78.76
41703;BME280;861;48.808;9.006;2022-10-31T01:07:16;97556.00;;;13.94;79.15
41703;BME280;861;48.808;9.006;2022-10-31T01:09:42;97564.97;;;13.98;79.06
41703;BME280;861;48.808;9.006;2022-10-31T01:15:55;97566.97;;;13.80;79.68
41703;BME280;861;48.808;9.006;2022-10-31T01:18:24;97566.59;;;13.50;80.65
41703;BME280;861;48.808;9.006;2022-10-31T01:21:19;97561.13;;;13.32;81.48
41703;BME280;861;48.808;9.006;2022-10-31T01:23:47;97561.50;;;13.27;81.74
41703;BME280;861;48.808;9.006;2022-10-31T01:26:25;97566.97;;;13.34;81.38
41703;BME280;861;48.808;9.006;2022-10-31T01:29:00;97567.38;;;13.43;81.17
41703;BME280;861;48.808;9.006;2022-10-31T01:31:35;97565.03;;;13.31;81.60
41703;BME280;861;48.808;9.006;2022-10-31T01:34:25;97558.78;;;13.31;82.13
41703;BME280;861;48.808;9.006;2022-10-31T01:38:31;97549.78;;;13.37;81.92
41703;BME280;861;48.808;9.006;2022-10-31T01:40:57;97554.84;;;13.46;81.68
41703;BME280;861;48.808;9.006;2022-10-31T01:43:26;97556.03;;;13.48;80.70
41703;BME280;861;48.808;9.006;2022-10-31T01:46:12;97554.09;;;13.45;80.54
41703;BME280;861;48.808;9.006;2022-10-31T01:48:42;97545.47;;;13.50;80.19
41703;BME280;861;48.808;9.006;2022-10-31T01:51:33;97550.16;;;13.64;79.67
41703;BME280;861;48.808;9.006;2022-10-31T01:54:09;97547.03;;;13.58;80.23
41703;BME280;861;48.808;9.006;2022-10-31T01:56:44;97539.22;;;13.64;79.68
41703;BME280;861;48.808;9.006;2022-10-31T01:59:20;97549.41;;;13.42;80.57
41703;BME280;861;48.808;9.006;2022-10-31T02:01:51;97557.22;;;13.44;80.41
41703;BME280;861;48.808;9.006;2022-10-31T02:04:21;97557.56;;;13.18;81.90
41703;BME280;861;48.808;9.006;2022-10-31T02:09:32;97553.28;;;13.17;82.05
41703;BME280;861;48.808;9.006;2022-10-31T02:14:15;97556.78;;;13.17;82.11
41703;BME280;861;48.808;9.006;2022-10-31T02:16:42;97551.31;;;13.03;82.90
41703;BME280;861;48.808;9.006;2022-10-31T02:19:15;97552.81;;;12.83;84.11
41703;BME280;861;48.808;9.006;2022-10-31T02:26:43;97555.22;;;13.13;82.83
41703;BME280;861;48.808;9.006;2022-10-31T02:30:12;97551.75;;;13.30;82.07
41703;BME280;861;48.808;9.006;2022-10-31T02:36:25;97558.75;;;13.38;79.99
41703;BME280;861;48.808;9.006;2022-10-31T02:41:28;97550.94;;;13.01;82.48
41703;BME280;861;48.808;9.006;2022-10-31T02:45:41;97542.31;;;13.06;82.06
41703;BME280;861;48.808;9.006;2022-10-31T02:48:39;97547.41;;;13.01;82.15
41703;BME280;861;48.808;9.006;2022-10-31T02:54:34;97545.47;;;13.22;80.42
41703;BME280;861;48.808;9.006;2022-10-31T02:57:08;97538.00;;;12.84;82.33
41703;BME280;861;48.808;9.006;2022-10-31T03:06:45;97537.66;;;13.28;80.13
41703;BME280;861;48.808;9.006;2022-10-31T03:09:27;97546.25;;;13.05;80.04
41703;BME280;861;48.808;9.006;2022-10-31T03:12:26;97546.66;;;13.11;79.78
41703;BME280;861;48.808;9.006;2022-10-31T03:15:25;97544.69;;;13.18;79.07
41703;BME280;861;48.808;9.006;2022-10-31T03:18:13;97547.03;;;13.20;78.85
41703;BME280;861;48.808;9.006;2022-10-31T03:21:13;97547.81;;;13.13;78.99
41703;BME280;861;48.808;9.006;2022-10-31T03:23:47;97541.56;;;13.09;79.17
41703;BME280;861;48.808;9.006;2022-10-31T03:26:21;97540.75;;;12.98;79.67
41703;BME280;861;48.808;9.006;2022-10-31T03:33:50;97547.34;;;12.83;81.15
41703;BME280;861;48.808;9.006;2022-10-31T03:36:21;97548.91;;;12.91;80.21
41703;BME280;861;48.808;9.006;2022-10-31T03:38:49;97542.66;;;12.91;80.74
41703;BME280;861;48.808;9.006;2022-10-31T03:41:25;97539.16;;;12.83;81.04
41703;BME280;861;48.808;9.006;2022-10-31T03:44:07;97536.41;;;12.83;80.56
41703;BME280;861;48.808;9.006;2022-10-31T03:49:30;97530.16;;;12.79;81.61
41703;BME280;861;48.808;9.006;2022-10-31T03:55:17;97537.53;;;12.72;82.11
41703;BME280;861;48.808;9.006;2022-10-31T03:57:59;97539.91;;;12.73;81.70
41703;BME280;861;48.808;9.006;2022-10-31T04:00:33;97532.50;;;12.77;81.35
41703;BME280;861;48.808;9.006;2022-10-31T04:03:12;97534.84;;;12.79;80.86
41703;BME280;861;48.808;9.006;2022-10-31T04:06:17;97531.34;;;12.85;80.54
41703;BME280;861;48.808;9.006;2022-10-31T04:14:07;97531.03;;;13.18;78.64
41703;BME280;861;48.808;9.006;2022-10-31T04:16:40;97528.28;;;13.22;78.51
41703;BME280;861;48.808;9.006;2022-10-31T04:19:10;97527.50;;;13.04;78.87
41703;BME280;861;48.808;9.006;2022-10-31T04:23:44;97526.34;;;13.01;79.50
41703;BME280;861;48.808;9.006;2022-10-31T04:28:07;97523.53;;;12.84;80.14
41703;BME280;861;48.808;9.006;2022-10-31T04:30:33;97522.75;;;12.83;80.31
41703;BME280;861;48.808;9.006;2022-10-31T04:35:33;97527.34;;;12.55;81.51
41703;BME280;861;48.808;9.006;2022-10-31T04:38:00;97525.72;;;12.29;83.01
41703;BME280;861;48.808;9.006;2022-10-31T04:40:26;97514.84;;;12.47;81.89
41703;BME280;861;48.808;9.006;2022-10-31T04:47:19;97514.53;;;12.73;80.77
41703;BME280;861;48.808;9.006;2022-10-31T04:49:46;97503.63;;;12.83;79.79
41703;BME280;861;48.808;9.006;2022-10-31T04:52:14;97511.41;;;12.85;79.99
41703;BME280;861;48.808;9.006;2022-10-31T04:55:53;97505.91;;;12.67;80.75
41703;BME280;861;48.808;9.006;2022-10-31T04:58:20;97505.53;;;12.65;81.04
41703;BME280;861;48.808;9.006;2022-10-31T05:00:47;97494.94;;;12.50;81.05
41703;BME280;861;48.808;9.006;2022-10-31T05:03:17;97500.00;;;12.44;81.04
41703;BME280;861;48.808;9.006;2022-10-31T05:05:43;97497.69;;;12.53;81.22
41703;BME280;861;48.808;9.006;2022-10-31T05:08:10;97500.03;;;12.55;81.03
41703;BME280;861;48.808;9.006;2022-10-31T05:10:37;97497.25;;;12.37;82.51
41703;BME280;861;48.808;9.006;2022-10-31T05:13:05;97489.88;;;12.45;82.00
41703;BME280;861;48.808;9.006;2022-10-31T05:15:32;97493.81;;;12.54;81.49
41703;BME280;861;48.808;9.006;2022-10-31T05:20:31;97485.56;;;12.37;81.86
41703;BME280;861;48.808;9.006;2022-10-31T05:22:59;97498.03;;;12.38;81.72
41703;BME280;861;48.808;9.006;2022-10-31T05:26:24;97491.44;;;12.46;81.26
41703;BME280;861;48.808;9.006;2022-10-31T05:33:44;97491.03;;;12.37;81.70
41703;BME280;861;48.808;9.006;2022-10-31T05:36:11;97489.03;;;12.26;81.80
41703;BME280;861;48.808;9.006;2022-10-31T05:40:02;97496.59;;;11.72;85.57
41703;BME280;861;48.808;9.006;2022-10-31T05:42:30;97492.31;;;11.78;84.73
41703;BME280;861;48.808;9.006;2022-10-31T05:44:57;97492.00;;;11.93;83.94
41703;BME280;861;48.808;9.006;2022-10-31T05:50:23;97481.97;;;12.15;82.68
41703;BME280;861;48.808;9.006;2022-10-31T05:53:05;97486.22;;;12.05;82.33
41703;BME280;861;48.808;9.006;2022-10-31T06:06:01;97476.50;;;12.15;81.24
41703;BME280;861;48.808;9.006;2022-10-31T06:16:25;97473.41;;;12.13;80.27
41703;BME280;861;48.808;9.006;2022-10-31T06:18:52;97477.28;;;12.15;80.55
41703;BME280;861;48.808;9.006;2022-10-31T06:23:08;97472.41;;;11.67;83.29
41703;BME280;861;48.808;9.006;2022-10-31T06:29:03;97470.84;;;11.66;84.02
41703;BME280;861;48.808;9.006;2022-10-31T06:31:30;97467.72;;;11.71;83.52
41703;BME280;861;48.808;9.006;2022-10-31T06:33:57;97474.44;;;11.84;83.53
41703;BME280;861;48.808;9.006;2022-10-31T06:37:54;97472.16;;;12.00;82.87
41703;BME280;861;48.808;9.006;2022-10-31T06:44:28;97467.13;;;12.09;81.49
41703;BME280;861;48.808;9.006;2022-10-31T06:59:06;97475.00;;;12.21;80.93
41703;BME280;861;48.808;9.006;2022-10-31T07:03:12;97473.47;;;12.48;79.85
41703;BME280;861;48.808;9.006;2022-10-31T07:06:35;97477.00;;;12.42;79.37
41703;BME280;861;48.808;9.006;2022-10-31T07:09:01;97485.59;;;12.40;80.13
41703;BME280;861;48.808;9.006;2022-10-31T07:11:28;97479.31;;;12.36;80.64
41703;BME280;861;48.808;9.006;2022-10-31T07:16:57;97489.00;;;12.16;81.93
41703;BME280;861;48.808;9.006;2022-10-31T07:21:26;97480.13;;;12.40;82.17
41703;BME280;861;48.808;9.006;2022-10-31T07:23:52;97485.16;;;12.34;82.73
41703;BME280;861;48.808;9.006;2022-10-31T07:39:34;97497.25;;;12.30;84.67
41703;BME280;861;48.808;9.006;2022-10-31T07:48:45;97489.16;;;12.76;83.00
41703;BME280;861;48.808;9.006;2022-10-31T07:54:28;97494.59;;;12.58;84.45
41703;BME280;861;48.808;9.006;2022-10-31T08:00:40;97486.06;;;12.91;83.76
41703;BME280;861;48.808;9.006;2022-10-31T08:05:17;97488.06;;;13.19;83.09
41703;BME280;861;48.808;9.006;2022-10-31T08:09:36;97486.47;;;13.28;83.46
41703;BME280;861;48.808;9.006;2022-10-31T08:15:42;97486.09;;;13.26;84.26
41703;BME280;861;48.808;9.006;2022-10-31T08:23:04;97476.28;;;13.64;82.79
41703;BME280;861;48.808;9.006;2022-10-31T08:25:34;97470.84;;;13.53;83.26
41703;BME280;861;48.808;9.006;2022-10-31T08:28:03;97477.47;;;13.59;83.53
41703;BME280;861;48.808;9.006;2022-10-31T08:32:02;97466.03;;;13.85;82.34
41703;BME280;861;48.808;9.006;2022-10-31T08:34:29;97463.69;;;13.84;81.97
41703;BME280;861;48.808;9.006;2022-10-31T08:36:56;97458.19;;;13.95;81.41
41703;BME280;861;48.808;9.006;2022-10-31T08:39:22;97458.91;;;14.06;81.06
41703;BME280;861;48.808;9.006;2022-10-31T08:44:00;97451.03;;;14.32;79.69
41703;BME280;861;48.808;9.006;2022-10-31T08:46:27;97450.25;;;14.32;80.61
41703;BME280;861;48.808;9.006;2022-10-31T08:48:53;97446.28;;;14.43;79.41
41703;BME280;861;48.808;9.006;2022-10-31T08:51:20;97448.16;;;14.50;79.51
41703;BME280;861;48.808;9.006;2022-10-31T08:53:47;97458.72;;;14.51;80.54
41703;BME280;861;48.808;9.006;2022-10-31T08:56:13;97447.72;;;14.58;80.26
41703;BME280;861;48.808;9.006;2022-10-31T09:00:17;97457.34;;;14.87;78.84
41703;BME280;861;48.808;9.006;2022-10-31T09:02:43;97451.41;;;14.92;79.80
41703;BME280;861;48.808;9.006;2022-10-31T09:05:10;97450.97;;;14.97;80.09
41703;BME280;861;48.808;9.006;2022-10-31T09:07:36;97445.72;;;15.17;78.14
41703;BME280;861;48.808;9.006;2022-10-31T09:10:03;97446.44;;;15.24;77.69
41703;BME280;861;48.808;9.006;2022-10-31T09:12:30;97443.25;;;15.33;77.88
41703;BME280;861;48.808;9.006;2022-10-31T09:14:56;97435.34;;;15.42;77.80
41703;BME280;861;48.808;9.006;2022-10-31T09:17:23;97436.81;;;15.54;76.50
41703;BME280;861;48.808;9.006;2022-10-31T09:19:49;97435.44;;;15.69;76.72
41703;BME280;861;48.808;9.006;2022-10-31T09:22:16;97428.66;;;15.80;76.83
41703;BME280;861;48.808;9.006;2022-10-31T09:24:42;97431.66;;;15.93;76.57
41703;BME280;861;48.808;9.006;2022-10-31T09:27:08;97422.44;;;16.06;76.10
41703;BME280;861;48.808;9.006;2022-10-31T09:29:35;97429.41;;;16.14;74.91
41703;BME280;861;48.808;9.006;2022-10-31T09:32:01;97428.97;;;16.19;74.82
41703;BME280;861;48.808;9.006;2022-10-31T09:34:27;97430.78;;;16.29;74.80
41703;BME280;861;48.808;9.006;2022-10-31T09:38:44;97420.41;;;16.40;74.61
41703;BME280;861;48.808;9.006;2022-10-31T09:44:56;97426.88;;;16.83;74.68
41703;BME280;861;48.808;9.006;2022-10-31T09:52:35;97431.94;;;17.12;73.08
41703;BME280;861;48.808;9.006;2022-10-31T09:55:21;97437.81;;;17.14;73.87
41703;BME280;861;48.808;9.006;2022-10-31T09:57:56;97434.16;;;17.20;74.65
41703;BME280;861;48.808;9.006;2022-10-31T10:00:26;97431.69;;;17.26;74.07
41703;BME280;861;48.808;9.006;2022-10-31T10:06:18;97423.53;;;17.45;71.49
41703;BME280;861;48.808;9.006;2022-10-31T10:08:49;97426.06;;;17.56;71.96
41703;BME280;861;48.808;9.006;2022-10-31T10:11:42;97425.06;;;17.69;72.93
41703;BME280;861;48.808;9.006;2022-10-31T10:17:50;97419.84;;;17.94;72.48
41703;BME280;861;48.808;9.006;2022-10-31T10:23:36;97411.75;;;18.43;67.13
41703;BME280;861;48.808;9.006;2022-10-31T10:26:37;97405.22;;;18.33;67.85
41703;BME280;861;48.808;9.006;2022-10-31T10:32:00;97399.53;;;18.24;69.61
41703;BME280;861;48.808;9.006;2022-10-31T10:34:49;97401.41;;;18.27;70.96
41703;BME280;861;48.808;9.006;2022-10-31T10:37:38;97395.78;;;18.34;71.64
41703;BME280;861;48.808;9.006;2022-10-31T10:40:24;97395.06;;;18.50;72.11
41703;BME280;861;48.808;9.006;2022-10-31T10:43:21;97394.72;;;18.64;69.85
41703;BME280;861;48.808;9.006;2022-10-31T10:46:16;97395.69;;;18.73;71.40
41703;BME280;861;48.808;9.006;2022-10-31T10:49:19;97390.06;;;18.93;69.60
41703;BME280;861;48.808;9.006;2022-10-31T10:54:58;97391.56;;;18.81;69.65
41703;BME280;861;48.808;9.006;2022-10-31T10:57:56;97388.00;;;18.97;68.43
41703;BME280;861;48.808;9.006;2022-10-31T11:02:33;97373.88;;;18.95;68.01
41703;BME280;861;48.808;9.006;2022-10-31T11:05:08;97376.69;;;18.91;68.37
41703;BME280;861;48.808;9.006;2022-10-31T11:07:44;97357.81;;;19.06;67.18
41703;BME280;861;48.808;9.006;2022-10-31T11:13:21;97347.88;;;19.08;68.34
41703;BME280;861;48.808;9.006;2022-10-31T11:16:11;97353.22;;;19.15;68.13
41703;BME280;861;48.808;9.006;2022-10-31T11:18:47;97349.38;;;19.13;69.05
41703;BME280;861;48.808;9.006;2022-10-31T11:23:26;97344.59;;;19.13;69.79
41703;BME280;861;48.808;9.006;2022-10-31T11:26:02;97337.09;;;19.14;70.26
41703;BME280;861;48.808;9.006;2022-10-31T11:28:32;97334.84;;;19.25;69.58
41703;BME280;861;48.808;9.006;2022-10-31T11:31:13;97332.50;;;19.39;68.31
41703;BME280;861;48.808;9.006;2022-10-31T11:33:46;97334.00;;;19.28;70.07
41703;BME280;861;48.808;9.006;2022-10-31T11:36:34;97328.59;;;19.37;69.73
41703;BME280;861;48.808;9.006;2022-10-31T11:41:30;97318.91;;;19.73;67.03
41703;BME280;861;48.808;9.006;2022-10-31T11:46:44;97317.16;;;19.51;69.88
41703;BME280;861;48.808;9.006;2022-10-31T11:49:37;97321.16;;;19.50;68.99
41703;BME280;861;48.808;9.006;2022-10-31T11:52:24;97311.66;;;19.51;68.99
41703;BME280;861;48.808;9.006;2022-10-31T11:55:00;97315.88;;;19.55;68.36
41703;BME280;861;48.808;9.006;2022-10-31T11:57:49;97312.25;;;19.58;67.29
41703;BME280;861;48.808;9.006;2022-10-31T12:08:45;97296.19;;;19.53;68.07
41703;BME280;861;48.808;9.006;2022-10-31T12:13:33;97286.25;;;19.56;69.01
41703;BME280;861;48.808;9.006;2022-10-31T12:19:40;97279.69;;;19.78;68.93
41703;BME280;861;48.808;9.006;2022-10-31T12:29:10;97267.09;;;19.77;68.30
41703;BME280;861;48.808;9.006;2022-10-31T12:36:41;97250.59;;;19.74;68.73
41703;BME280;861;48.808;9.006;2022-10-31T12:42:58;97252.56;;;19.61;68.81
41703;BME280;861;48.808;9.006;2022-10-31T12:50:06;97236.31;;;19.63;69.10
41703;BME280;861;48.808;9.006;2022-10-31T12:53:15;97236.53;;;19.56;70.45
41703;BME280;861;48.808;9.006;2022-10-31T12:58:56;97222.66;;;19.31;71.60
41703;BME280;861;48.808;9.006;2022-10-31T13:01:40;97218.94;;;19.21;71.75
41703;BME280;861;48.808;9.006;2022-10-31T13:07:23;97202.09;;;19.32;71.69
41703;BME280;861;48.808;9.006;2022-10-31T13:12:48;97202.25;;;19.41;70.55
41703;BME280;861;48.808;9.006;2022-10-31T13:15:45;97198.59;;;19.31;71.35
41703;BME280;861;48.808;9.006;2022-10-31T13:18:33;97200.31;;;19.25;71.21
41703;BME280;861;48.808;9.006;2022-10-31T13:21:21;97194.25;;;19.30;71.57
41703;BME280;861;48.808;9.006;2022-10-31T13:23:59;97186.69;;;19.59;69.17
41703;BME280;861;48.808;9.006;2022-10-31T13:26:47;97186.34;;;19.57;71.35
41703;BME280;861;48.808;9.006;2022-10-31T13:29:28;97189.69;;;19.90;68.75
41703;BME280;861;48.808;9.006;2022-10-31T13:32:05;97199.44;;;19.95;68.90
41703;BME280;861;48.808;9.006;2022-10-31T13:34:56;97193.22;;;20.28;69.74
41703;BME280;861;48.808;9.006;2022-10-31T13:37:46;97198.56;;;20.57;68.35
41703;BME280;861;48.808;9.006;2022-10-31T13:41:03;97193.97;;;21.09;66.33
41703;BME280;861;48.808;9.006;2022-10-31T13:44:17;97187.19;;;21.54;64.24
41703;BME280;861;48.808;9.006;2022-10-31T13:46:45;97187.72;;;21.70;62.82
41703;BME280;861;48.808;9.006;2022-10-31T13:50:30;97181.84;;;21.38;64.32
41703;BME280;861;48.808;9.006;2022-10-31T13:53:22;97174.03;;;21.45;63.68
41703;BME280;861;48.808;9.006;2022-10-31T13:56:34;97158.03;;;21.18;64.68
41703;BME280;861;48.808;9.006;2022-10-31T13:59:18;97160.19;;;20.80;66.04
41703;BME280;861;48.808;9.006;2022-10-31T14:01:58;97170.00;;;20.60;67.07
41703;BME280;861;48.808;9.006;2022-10-31T14:04:52;97173.47;;;20.51;68.08
41703;BME280;861;48.808;9.006;2022-10-31T14:07:33;97160.09;;;20.50;67.75
41703;BME280;861;48.808;9.006;2022-10-31T14:10:16;97168.25;;;20.53;67.39
41703;BME280;861;48.808;9.006;2022-10-31T14:12:50;97168.41;;;20.50;68.25
41703;BME280;861;48.808;9.006;2022-10-31T14:15:25;97161.00;;;20.47;67.44
41703;BME280;861;48.808;9.006;2022-10-31T14:18:16;97149.06;;;20.37;68.25
41703;BME280;861;48.808;9.006;2022-10-31T14:20:55;97150.59;;;20.38;68.72
41703;BME280;861;48.808;9.006;2022-10-31T14:31:54;97146.41;;;20.34;68.03
41703;BME280;861;48.808;9.006;2022-10-31T14:34:41;97142.19;;;20.42;68.17
41703;BME280;861;48.808;9.006;2022-10-31T14:40:33;97132.31;;;20.75;67.01
41703;BME280;861;48.808;9.006;2022-10-31T14:43:30;97138.44;;;20.70;67.59
41703;BME280;861;48.808;9.006;2022-10-31T14:50:09;97136.41;;;20.49;66.98
41703;BME280;861;48.808;9.006;2022-10-31T14:52:55;97142.72;;;20.49;67.50
41703;BME280;861;48.808;9.006;2022-10-31T14:55:25;97138.84;;;20.47;67.80
41703;BME280;861;48.808;9.006;2022-10-31T14:58:04;97140.88;;;20.34;68.96
41703;BME280;861;48.808;9.006;2022-10-31T15:00:36;97129.75;;;20.25;68.75
41703;BME280;861;48.808;9.006;2022-10-31T15:03:28;97137.34;;;20.33;68.63
41703;BME280;861;48.808;9.006;2022-10-31T15:06:11;97131.91;;;20.30;69.01
41703;BME280;861;48.808;9.006;2022-10-31T15:08:47;97134.41;;;20.15;69.64
41703;BME280;861;48.808;9.006;2022-10-31T15:11:27;97139.78;;;20.06;69.70
41703;BME280;861;48.808;9.006;2022-10-31T15:13:57;97140.38;;;20.01;70.12
41703;BME280;861;48.808;9.006;2022-10-31T15:16:44;97147.00;;;19.91;69.81
41703;BME280;861;48.808;9.006;2022-10-31T15:19:22;97135.06;;;19.82;69.87
41703;BME280;861;48.808;9.006;2022-10-31T15:21:56;97138.94;;;19.84;70.15
41703;BME280;861;48.808;9.006;2022-10-31T15:24:33;97131.66;;;19.77;70.70
41703;BME280;861;48.808;9.006;2022-10-31T15:27:02;97118.50;;;19.69;71.07
41703;BME280;861;48.808;9.006;2022-10-31T15:29:32;97117.06;;;19.52;71.49
41703;BME280;861;48.808;9.006;2022-10-31T15:32:27;97105.34;;;19.48;72.04
41703;BME280;861;48.808;9.006;2022-10-31T15:34:56;97115.06;;;19.52;71.10
41703;BME280;861;48.808;9.006;2022-10-31T15:37:30;97119.28;;;19.44;71.12
41703;BME280;861;48.808;9.006;2022-10-31T15:40:12;97115.75;;;19.44;70.64
41703;BME280;861;48.808;9.006;2022-10-31T15:42:48;97121.28;;;19.44;70.98
41703;BME280;861;48.808;9.006;2022-10-31T15:45:24;97117.38;;;19.29;71.59
41703;BME280;861;48.808;9.006;2022-10-31T15:48:15;97114.56;;;19.04;71.96
41703;BME280;861;48.808;9.006;2022-10-31T15:50:57;97101.47;;;18.79;73.71
41703;BME280;861;48.808;9.006;2022-10-31T15:53:41;97093.28;;;18.76;73.84
41703;BME280;861;48.808;9.006;2022-10-31T15:56:22;97098.16;;;18.72;73.56
41703;BME280;861;48.808;9.006;2022-10-31T15:58:57;97099.56;;;18.64;73.84
41703;BME280;861;48.808;9.006;2022-10-31T16:01:33;97092.16;;;18.61;73.96
41703;BME280;861;48.808;9.006;2022-10-31T16:04:05;97091.47;;;18.57;74.62
41703;BME280;861;48.808;9.006;2022-10-31T16:07:11;97096.38;;;18.65;73.98
41703;BME280;861;48.808;9.006;2022-10-31T16:10:00;97094.66;;;18.55;74.96
41703;BME280;861;48.808;9.006;2022-10-31T16:12:52;97083.16;;;18.44;75.39
41703;BME280;861;48.808;9.006;2022-10-31T16:15:21;97083.41;;;18.50;74.82
41703;BME280;861;48.808;9.006;2022-10-31T16:17:51;97077.97;;;18.46;74.88
41703;BME280;861;48.808;9.006;2022-10-31T16:20:28;97064.91;;;18.34;74.79
41703;BME280;861;48.808;9.006;2022-10-31T16:22:59;97070.84;;;18.33;74.81
41703;BME280;861;48.808;9.006;2022-10-31T16:25:37;97064.50;;;18.19;74.94
41703;BME280;861;48.808;9.006;2022-10-31T16:29:48;97078.72;;;18.18;75.03
41703;BME280;861;48.808;9.006;2022-10-31T16:32:34;97078.13;;;18.10;75.55
41703;BME280;861;48.808;9.006;2022-10-31T16:35:27;97087.16;;;18.11;75.18
41703;BME280;861;48.808;9.006;2022-10-31T16:38:01;97073.16;;;18.05;75.52
41703;BME280;861;48.808;9.006;2022-10-31T16:40:29;97071.94;;;18.06;75.26
41703;BME280;861;48.808;9.006;2022-10-31T16:43:00;97068.81;;;18.04;75.13
41703;BME280;861;48.808;9.006;2022-10-31T16:45:32;97056.63;;;18.05;74.78
41703;BME280;861;48.808;9.006;2022-10-31T16:48:15;97062.13;;;18.05;74.58
41703;BME280;861;48.808;9.006;2022-10-31T16:50:49;97065.06;;;17.82;75.42
41703;BME280;861;48.808;9.006;2022-10-31T16:53:16;97064.56;;;17.71;75.54
41703;BME280;861;48.808;9.006;2022-10-31T16:55:48;97060.41;;;17.79;75.64
41703;BME280;861;48.808;9.006;2022-10-31T16:59:37;97066.56;;;17.55;76.37
41703;BME280;861;48.808;9.006;2022-10-31T17:02:13;97067.75;;;17.54;76.72
41703;BME280;861;48.808;9.006;2022-10-31T17:04:41;97073.59;;;17.56;77.30
41703;BME280;861;48.808;9.006;2022-10-31T17:07:07;97069.97;;;17.59;76.81
41703;BME280;861;48.808;9.006;2022-10-31T17:09:34;97064.16;;;17.57;76.78
41703;BME280;861;48.808;9.006;2022-10-31T17:12:00;97066.78;;;17.60;76.72
41703;BME280;861;48.808;9.006;2022-10-31T17:14:27;97073.69;;;17.52;76.83
41703;BME280;861;48.808;9.006;2022-10-31T17:16:54;97089.38;;;17.36;77.36
41703;BME280;861;48.808;9.006;2022-10-31T17:19:20;97097.47;;;17.27;77.95
41703;BME280;861;48.808;9.006;2022-10-31T17:21:47;97093.06;;;17.29;77.82
41703;BME280;861;48.808;9.006;2022-10-31T17:24:15;97097.75;;;16.97;79.43
41703;BME280;861;48.808;9.006;2022-10-31T17:26:42;97092.59;;;16.99;78.73
41703;BME280;861;48.808;9.006;2022-10-31T17:29:08;97091.63;;;17.05;78.80
41703;BME280;861;48.808;9.006;2022-10-31T17:31:36;97105.91;;;17.00;78.46
41703;BME280;861;48.808;9.006;2022-10-31T17:34:05;97098.28;;;16.88;78.35
41703;BME280;861;48.808;9.006;2022-10-31T17:36:34;97073.63;;;16.84;79.67
41703;BME280;861;48.808;9.006;2022-10-31T17:39:02;97070.59;;;16.79;80.21
41703;BME280;861;48.808;9.006;2022-10-31T17:41:30;97065.03;;;16.83;80.71
41703;BME280;861;48.808;9.006;2022-10-31T17:43:58;97061.06;;;16.83;79.84
41703;BME280;861;48.808;9.006;2022-10-31T17:46:25;97060.16;;;16.90;79.45
41703;BME280;861;48.808;9.006;2022-10-31T17:48:53;97064.19;;;16.86;79.45
41703;BME280;861;48.808;9.006;2022-10-31T17:51:20;97063.25;;;16.92;78.81
41703;BME280;861;48.808;9.006;2022-10-31T17:53:46;97068.66;;;16.96;78.16
41703;BME280;861;48.808;9.006;2022-10-31T17:56:13;97063.75;;;16.87;78.43
41703;BME280;861;48.808;9.006;2022-10-31T17:58:39;97060.56;;;16.89;78.08
41703;BME280;861;48.808;9.006;2022-10-31T18:01:13;97054.72;;;16.87;78.12
41703;BME280;861;48.808;9.006;2022-10-31T18:03:41;97058.31;;;16.83;78.41
41703;BME280;861;48.808;9.006;2022-10-31T18:06:09;97056.28;;;16.68;78.96
41703;BME280;861;48.808;9.006;2022-10-31T18:08:39;97068.69;;;16.76;78.90
41703;BME280;861;48.808;9.006;2022-10-31T18:11:18;97065.81;;;16.63;79.48
41703;BME280;861;48.808;9.006;2022-10-31T18:13:46;97057.88;;;16.49;79.92
41703;BME280;861;48.808;9.006;2022-10-31T18:16:17;97052.47;;;16.23;81.90
41703;BME280;861;48.808;9.006;2022-10-31T18:18:49;97038.94;;;16.32;81.40
41703;BME280;861;48.808;9.006;2022-10-31T18:21:18;97017.13;;;16.44;80.08
41703;BME280;861;48.808;9.006;2022-10-31T18:26:03;97009.56;;;16.48;79.91
41703;BME280;861;48.808;9.006;2022-10-31T18:28:30;97011.25;;;16.62;79.78
41703;BME280;861;48.808;9.006;2022-10-31T18:30:58;97020.75;;;16.38;80.61
41703;BME280;861;48.808;9.006;2022-10-31T18:33:27;97006.94;;;16.22;81.05
41703;BME280;861;48.808;9.006;2022-10-31T18:35:54;97010.84;;;16.24;81.91
41703;BME280;861;48.808;9.006;2022-10-31T18:38:21;97010.97;;;16.17;81.55